Time;durP1;ratioP1;P1;durP2;ratioP2;P2;SDS_P1;SDS_P2;PMS_P1;PMS_P2;Temp;Humidity;BMP_temperature;BMP_pressure;BME280_temperature;BME280_humidity;BME280_pressure;Samples;Min_cycle;Max_cycle;Signal;HPM_P1;HPM_P2
2022/08/14 00:01:07;;;;;;;1.35;0.85;;;20.30;99.90;;;;;;4979409;28;20086;-84
2022/08/14 00:03:34;;;;;;;0.57;0.43;;;20.20;99.90;;;;;;4979205;28;20042;-83
2022/08/14 00:06:03;;;;;;;1.08;0.63;;;20.20;99.90;;;;;;4979445;28;20043;-83
2022/08/14 00:08:30;;;;;;;0.60;0.45;;;20.10;99.90;;;;;;4995055;28;20402;-84
2022/08/14 00:10:57;;;;;;;0.90;0.70;;;20.20;99.90;;;;;;4995481;28;20054;-84
2022/08/14 00:13:27;;;;;;;1.00;0.68;;;20.10;99.90;;;;;;4981969;28;20034;-82
2022/08/14 00:15:57;;;;;;;0.93;0.60;;;20.10;99.90;;;;;;4998596;28;20125;-84
2022/08/14 00:18:25;;;;;;;1.10;0.77;;;20.00;99.90;;;;;;5014634;28;20046;-84
2022/08/14 00:20:52;;;;;;;15.00;1.17;;;20.00;99.90;;;;;;5014110;28;20042;-84
2022/08/14 00:23:19;;;;;;;1.13;0.65;;;20.00;99.90;;;;;;4998411;28;20092;-84
2022/08/14 00:25:50;;;;;;;0.68;0.50;;;20.00;99.90;;;;;;4982626;28;20037;-84
2022/08/14 00:28:20;;;;;;;0.70;0.60;;;20.00;99.90;;;;;;5014579;28;20124;-84
2022/08/14 00:30:47;;;;;;;0.85;0.50;;;20.00;99.90;;;;;;5014104;28;20037;-84
2022/08/14 00:33:14;;;;;;;1.48;0.70;;;20.00;99.90;;;;;;5030566;28;20549;-84
2022/08/14 00:35:41;;;;;;;1.30;0.88;;;20.00;99.90;;;;;;4982153;28;20514;-83
2022/08/14 00:38:07;;;;;;;1.00;0.60;;;20.00;99.90;;;;;;5014106;28;20048;-84
2022/08/14 00:40:34;;;;;;;0.82;0.63;;;20.00;99.90;;;;;;5029822;28;20080;-84
2022/08/14 00:43:01;;;;;;;1.13;0.80;;;19.90;99.90;;;;;;5014347;28;20038;-84
2022/08/14 00:45:28;;;;;;;0.65;0.60;;;19.90;99.90;;;;;;5014467;28;20494;-83
2022/08/14 00:47:54;;;;;;;1.27;0.80;;;20.00;99.90;;;;;;4997872;28;20071;-84
2022/08/14 00:50:21;;;;;;;0.75;0.57;;;20.00;99.90;;;;;;4982338;28;20049;-84
2022/08/14 00:52:51;;;;;;;1.58;1.00;;;19.90;99.90;;;;;;4997533;28;20048;-83
2022/08/14 00:55:19;;;;;;;1.42;0.95;;;20.00;99.90;;;;;;5013489;28;20069;-84
2022/08/14 00:58:29;;;;;;;1.17;0.80;;;19.90;99.90;;;;;;5030085;28;20050;-83
2022/08/14 01:00:33;;;;;;;0.77;0.60;;;19.90;99.90;;;;;;5016757;28;20049;-83
2022/08/14 01:03:00;;;;;;;1.92;0.70;;;19.90;99.90;;;;;;5030163;28;20033;-84
2022/08/14 01:05:28;;;;;;;0.80;0.63;;;19.90;99.90;;;;;;5013893;28;20096;-84
2022/08/14 01:07:58;;;;;;;1.00;0.63;;;19.80;99.90;;;;;;5014231;28;20092;-83
2022/08/14 01:10:49;;;;;;;1.30;0.70;;;19.80;99.90;;;;;;4982610;28;20050;-83
2022/08/14 01:13:15;;;;;;;1.45;0.73;;;19.80;99.90;;;;;;5029789;28;20057;-83
2022/08/14 01:15:43;;;;;;;1.33;0.90;;;19.80;99.90;;;;;;5013452;28;20079;-84
2022/08/14 01:21:10;;;;;;;0.82;0.63;;;19.80;99.90;;;;;;5031956;28;20085;-83
2022/08/14 01:23:40;;;;;;;1.35;0.90;;;19.90;99.90;;;;;;5014224;28;20046;-83
2022/08/14 01:26:07;;;;;;;1.33;0.82;;;19.80;99.90;;;;;;5013719;28;20037;-83
2022/08/14 01:28:36;;;;;;;1.80;0.90;;;19.90;99.90;;;;;;4997625;28;20042;-84
2022/08/14 01:31:11;;;;;;;1.10;0.80;;;19.90;99.90;;;;;;5013950;28;20060;-84
2022/08/14 01:33:40;;;;;;;1.05;0.75;;;19.90;99.90;;;;;;5013643;28;20038;-84
2022/08/14 01:36:08;;;;;;;1.17;0.63;;;19.90;99.90;;;;;;4997458;28;20479;-83
2022/08/14 01:38:35;;;;;;;0.68;0.55;;;19.90;99.90;;;;;;4997374;28;20387;-83
2022/08/14 01:41:14;;;;;;;0.55;0.50;;;19.80;99.90;;;;;;4981084;28;20128;-84
2022/08/14 01:43:53;;;;;;;0.75;0.57;;;19.80;99.90;;;;;;5029651;28;20045;-84
2022/08/14 01:46:23;;;;;;;0.77;0.60;;;19.80;99.90;;;;;;5013829;28;20038;-84
2022/08/14 01:48:53;;;;;;;1.13;0.73;;;19.80;99.90;;;;;;5013527;28;20034;-83
2022/08/14 01:51:23;;;;;;;0.70;0.55;;;19.70;99.90;;;;;;5014520;28;20050;-84
2022/08/14 01:53:55;;;;;;;0.93;0.70;;;19.70;99.90;;;;;;5001243;28;20042;-84
2022/08/14 01:56:38;;;;;;;1.02;0.50;;;19.70;99.90;;;;;;5017050;28;20061;-83
2022/08/14 01:59:18;;;;;;;1.40;0.80;;;19.60;99.90;;;;;;5017199;28;20065;-83
2022/08/14 02:01:50;;;;;;;0.73;0.60;;;19.60;99.90;;;;;;5016964;28;20056;-84
2022/08/14 02:04:21;;;;;;;0.85;0.68;;;19.50;99.90;;;;;;5033819;28;20041;-84
2022/08/14 02:06:49;;;;;;;1.60;0.90;;;19.40;99.90;;;;;;5017036;28;20038;-84
2022/08/14 02:09:18;;;;;;;1.00;0.75;;;19.40;99.90;;;;;;5015239;28;20038;-84
2022/08/14 02:11:45;;;;;;;0.93;0.80;;;19.40;99.90;;;;;;4981840;28;20046;-84
2022/08/14 02:14:12;;;;;;;0.90;0.70;;;19.40;99.90;;;;;;5010195;28;20420;-83
2022/08/14 02:16:43;;;;;;;1.33;0.90;;;19.40;99.90;;;;;;4981329;28;20046;-84
2022/08/14 02:19:13;;;;;;;2.45;1.02;;;19.40;99.90;;;;;;5009536;28;20038;-84
2022/08/14 02:21:45;;;;;;;1.05;0.70;;;19.30;99.90;;;;;;4977818;28;20138;-83
2022/08/14 02:24:13;;;;;;;1.35;0.90;;;19.30;99.90;;;;;;4978360;28;20077;-84
2022/08/14 02:26:42;;;;;;;1.02;0.80;;;19.30;99.90;;;;;;4962531;28;20039;-84
2022/08/14 02:29:13;;;;;;;1.13;0.82;;;19.30;99.90;;;;;;4977550;28;20407;-84
2022/08/14 02:31:42;;;;;;;1.58;0.98;;;19.20;99.90;;;;;;4977743;28;20047;-84
2022/08/14 02:34:28;;;;;;;1.05;0.80;;;19.20;99.90;;;;;;4977568;28;20046;-84
2022/08/14 02:37:04;;;;;;;1.38;0.85;;;19.20;99.90;;;;;;4977298;28;20046;-84
2022/08/14 02:39:33;;;;;;;0.98;0.75;;;19.20;99.90;;;;;;4977769;28;20074;-83
2022/08/14 02:42:00;;;;;;;1.83;0.98;;;19.20;99.90;;;;;;4977432;28;20039;-84
2022/08/14 02:44:26;;;;;;;1.50;1.00;;;19.20;99.90;;;;;;4977542;28;20039;-84
2022/08/14 02:46:56;;;;;;;0.93;0.70;;;19.20;99.90;;;;;;4977384;28;20047;-84
2022/08/14 02:49:27;;;;;;;0.95;0.70;;;19.20;99.90;;;;;;4993340;28;20492;-84
2022/08/14 02:51:56;;;;;;;1.48;0.93;;;19.10;99.90;;;;;;4977552;28;20082;-83
2022/08/14 02:54:25;;;;;;;0.98;0.77;;;19.10;99.90;;;;;;4961802;28;20500;-84
2022/08/14 02:56:58;;;;;;;0.80;0.60;;;19.10;99.90;;;;;;4989758;28;20050;-84
2022/08/14 02:59:28;;;;;;;1.55;0.90;;;19.10;99.90;;;;;;4997164;28;20193;-84
2022/08/14 03:01:56;;;;;;;1.25;0.88;;;19.00;99.90;;;;;;4996214;28;20046;-84
2022/08/14 03:04:23;;;;;;;1.88;0.90;;;19.00;99.90;;;;;;4995879;28;20035;-83
2022/08/14 03:06:49;;;;;;;1.33;0.82;;;19.00;99.90;;;;;;5013021;28;20042;-83
2022/08/14 03:09:16;;;;;;;1.30;0.73;;;19.00;99.90;;;;;;5012411;28;20467;-83
2022/08/14 03:11:43;;;;;;;1.38;0.77;;;19.00;99.90;;;;;;5012524;28;20074;-83
2022/08/14 03:14:10;;;;;;;1.70;0.90;;;18.90;99.90;;;;;;5005101;28;20042;-83
2022/08/14 03:16:40;;;;;;;0.77;0.63;;;18.90;99.90;;;;;;5032368;28;20045;-84
2022/08/14 03:19:07;;;;;;;1.20;0.80;;;18.90;99.90;;;;;;5032035;28;20052;-83
2022/08/14 03:21:36;;;;;;;0.43;0.43;;;18.80;99.90;;;;;;5048350;28;20470;-84
2022/08/14 03:24:10;;;;;;;1.02;0.68;;;18.90;99.90;;;;;;5031862;28;20034;-84
2022/08/14 03:26:43;;;;;;;0.70;0.60;;;18.80;99.90;;;;;;5032341;28;20045;-84
2022/08/14 03:29:13;;;;;;;1.67;0.90;;;18.80;99.90;;;;;;5031263;28;20513;-84
2022/08/14 03:31:40;;;;;;;1.35;0.93;;;18.70;99.90;;;;;;5031899;28;20040;-83
2022/08/14 03:34:11;;;;;;;1.35;0.70;;;18.70;99.90;;;;;;5031701;28;20038;-84
2022/08/14 03:36:39;;;;;;;0.68;0.55;;;18.70;99.90;;;;;;5031834;28;20049;-84
2022/08/14 03:39:07;;;;;;;1.25;0.80;;;18.70;99.90;;;;;;5015612;28;20046;-84
2022/08/14 03:41:34;;;;;;;0.90;0.80;;;18.60;99.90;;;;;;5031638;28;20088;-84
2022/08/14 03:44:03;;;;;;;0.90;0.60;;;18.60;99.90;;;;;;4999126;28;20092;-84
2022/08/14 03:46:35;;;;;;;1.25;0.85;;;18.60;99.90;;;;;;5031458;28;20562;-84
2022/08/14 03:49:04;;;;;;;0.90;0.70;;;18.60;99.90;;;;;;5030948;28;20537;-83
2022/08/14 03:51:32;;;;;;;1.42;0.90;;;18.60;99.90;;;;;;5015626;28;20042;-83
2022/08/14 03:54:01;;;;;;;1.25;0.80;;;18.60;99.90;;;;;;5031335;28;20050;-84
2022/08/14 03:56:29;;;;;;;0.77;0.68;;;18.60;99.90;;;;;;5047276;28;20557;-84
2022/08/14 03:58:58;;;;;;;1.08;0.80;;;18.60;99.90;;;;;;5031118;28;20041;-84
2022/08/14 04:01:25;;;;;;;0.63;0.50;;;18.60;99.90;;;;;;5046711;28;20050;-83
2022/08/14 04:03:54;;;;;;;1.08;0.55;;;18.50;99.90;;;;;;5030990;28;20044;-83
2022/08/14 04:06:20;;;;;;;1.38;0.90;;;18.50;99.90;;;;;;5030422;28;20069;-83
2022/08/14 04:08:48;;;;;;;1.15;0.73;;;18.50;99.90;;;;;;5014523;28;20084;-83
2022/08/14 04:11:17;;;;;;;1.13;0.70;;;18.50;99.90;;;;;;4998617;28;20144;-83
2022/08/14 04:13:44;;;;;;;1.45;1.00;;;18.50;99.90;;;;;;5046985;28;20462;-83
2022/08/14 04:16:14;;;;;;;1.27;0.75;;;18.50;99.90;;;;;;5030789;28;20077;-83
2022/08/14 04:18:44;;;;;;;1.52;0.98;;;18.50;99.90;;;;;;5030552;28;20514;-84
2022/08/14 04:21:12;;;;;;;0.93;0.55;;;18.50;99.90;;;;;;5030284;28;20064;-83
2022/08/14 04:23:39;;;;;;;1.10;0.52;;;18.50;99.90;;;;;;5030998;28;20061;-84
2022/08/14 04:26:09;;;;;;;0.82;0.65;;;18.40;99.90;;;;;;5030729;28;20042;-83
2022/08/14 04:28:38;;;;;;;0.75;0.60;;;18.40;99.90;;;;;;5027503;28;20050;-84
2022/08/14 04:31:05;;;;;;;1.58;0.90;;;18.40;99.90;;;;;;5027098;28;20085;-83
2022/08/14 04:33:33;;;;;;;1.40;0.90;;;18.50;99.90;;;;;;5020476;28;20042;-84
2022/08/14 04:35:59;;;;;;;1.52;0.77;;;18.50;99.90;;;;;;5014295;28;20124;-84
2022/08/14 04:43:57;;;;;;;3.85;1.23;;;18.50;99.90;;;;;;5032697;28;20526;-83
2022/08/14 04:46:26;;;;;;;1.15;0.85;;;18.40;99.90;;;;;;5013577;28;20075;-83
2022/08/14 04:48:56;;;;;;;1.20;0.80;;;18.50;99.90;;;;;;5017460;28;20056;-84
2022/08/14 04:51:26;;;;;;;0.60;0.50;;;18.40;99.90;;;;;;4997984;28;20033;-84
2022/08/14 04:53:54;;;;;;;1.23;0.93;;;18.40;99.90;;;;;;5030961;28;20065;-84
2022/08/14 04:56:23;;;;;;;2.38;0.93;;;18.40;99.90;;;;;;5029685;28;20050;-84
2022/08/14 04:58:56;;;;;;;0.80;0.60;;;18.50;99.90;;;;;;5030123;28;20053;-83
2022/08/14 05:01:25;;;;;;;1.17;0.70;;;18.50;99.90;;;;;;5029529;28;20124;-83
2022/08/14 05:03:53;;;;;;;1.95;0.98;;;18.50;99.90;;;;;;5014340;28;20072;-83
2022/08/14 05:06:20;;;;;;;1.65;0.90;;;18.50;99.90;;;;;;5029622;28;20120;-83
2022/08/14 05:08:47;;;;;;;1.35;0.80;;;18.60;99.90;;;;;;5014274;28;20033;-83
2022/08/14 05:11:14;;;;;;;1.17;0.77;;;18.60;99.90;;;;;;5045973;28;20618;-83
2022/08/14 05:13:42;;;;;;;1.95;1.15;;;18.60;99.90;;;;;;5029910;28;20049;-83
2022/08/14 05:16:12;;;;;;;2.72;0.85;;;18.70;99.90;;;;;;4998403;28;20049;-83
2022/08/14 05:18:39;;;;;;;2.45;1.20;;;18.80;99.90;;;;;;5014097;28;20128;-84
2022/08/14 05:21:08;;;;;;;3.80;1.52;;;18.90;99.90;;;;;;5030054;28;20099;-83
2022/08/14 05:23:37;;;;;;;2.05;1.23;;;18.90;99.90;;;;;;5045831;28;20048;-83
2022/08/14 05:26:11;;;;;;;2.35;1.20;;;19.00;99.90;;;;;;5013076;28;20042;-83
2022/08/14 05:28:43;;;;;;;2.10;1.38;;;19.00;99.90;;;;;;5029715;28;20037;-84
2022/08/14 05:31:17;;;;;;;3.22;1.70;;;19.10;99.90;;;;;;5013756;28;20065;-83
2022/08/14 05:33:45;;;;;;;2.85;1.20;;;19.20;99.90;;;;;;5029643;28;20049;-83
2022/08/14 05:36:13;;;;;;;3.15;1.48;;;19.30;99.90;;;;;;5046279;28;20063;-84
2022/08/14 05:38:46;;;;;;;2.60;1.35;;;19.30;99.90;;;;;;5013364;28;20077;-83
2022/08/14 05:41:15;;;;;;;1.92;1.17;;;19.40;99.90;;;;;;5029696;28;20038;-84
2022/08/14 05:43:44;;;;;;;2.78;1.60;;;19.50;99.90;;;;;;5013396;28;20038;-83
2022/08/14 05:46:12;;;;;;;2.67;1.60;;;19.60;99.90;;;;;;5029974;28;20038;-83
2022/08/14 05:48:39;;;;;;;1.85;1.13;;;19.70;99.90;;;;;;5029242;28;20073;-83
2022/08/14 05:51:06;;;;;;;1.67;0.93;;;19.70;99.90;;;;;;4997472;28;20088;-83
2022/08/14 05:53:33;;;;;;;1.35;0.90;;;19.80;99.90;;;;;;5029316;28;20046;-83
2022/08/14 05:56:00;;;;;;;1.98;1.00;;;19.90;99.90;;;;;;4997196;28;20054;-84
2022/08/14 05:58:26;;;;;;;2.28;1.27;;;19.90;99.90;;;;;;4997001;28;20050;-84
2022/08/14 06:00:54;;;;;;;1.70;0.95;;;20.00;99.90;;;;;;5046127;28;20034;-84
2022/08/14 06:03:22;;;;;;;2.00;1.13;;;20.00;99.90;;;;;;5029277;28;20116;-83
2022/08/14 06:05:54;;;;;;;1.17;0.80;;;20.10;99.90;;;;;;5029384;28;20038;-83
2022/08/14 06:08:31;;;;;;;0.68;0.68;;;20.10;99.90;;;;;;5029389;28;20042;-84
2022/08/14 06:11:02;;;;;;;1.00;0.80;;;20.20;99.90;;;;;;5029560;28;20038;-84
2022/08/14 06:13:34;;;;;;;1.48;0.90;;;20.30;99.90;;;;;;5028822;28;20049;-83
2022/08/14 06:16:01;;;;;;;1.52;0.90;;;20.40;99.90;;;;;;5045942;28;20050;-83
2022/08/14 06:18:28;;;;;;;1.35;1.00;;;20.50;99.90;;;;;;5012893;28;20518;-83
2022/08/14 06:20:54;;;;;;;1.45;0.90;;;20.60;99.90;;;;;;4996963;28;20125;-83
2022/08/14 06:23:21;;;;;;;1.00;0.75;;;20.70;99.90;;;;;;5028981;28;20042;-83
2022/08/14 06:25:48;;;;;;;1.35;0.75;;;20.80;99.90;;;;;;4997320;28;20112;-84
2022/08/14 06:28:20;;;;;;;1.17;0.68;;;20.90;99.90;;;;;;4997495;28;20046;-84
2022/08/14 06:30:47;;;;;;;1.05;0.85;;;21.00;99.90;;;;;;5029193;28;20041;-84
2022/08/14 06:33:15;;;;;;;1.55;0.90;;;21.00;99.90;;;;;;5029426;28;20037;-85
2022/08/14 06:35:43;;;;;;;0.95;0.70;;;21.10;99.90;;;;;;4997485;28;20577;-85
2022/08/14 06:38:18;;;;;;;1.45;0.82;;;21.20;99.90;;;;;;5032045;28;20132;-85
2022/08/14 06:40:45;;;;;;;1.23;0.80;;;21.20;99.90;;;;;;5029625;28;20085;-84
2022/08/14 06:43:13;;;;;;;1.65;1.08;;;21.30;99.90;;;;;;5048957;28;20040;-85
2022/08/14 06:45:41;;;;;;;1.50;0.90;;;21.40;99.90;;;;;;5016718;28;20041;-85
2022/08/14 06:48:21;;;;;;;1.10;0.73;;;21.50;99.90;;;;;;5031945;28;20045;-85
2022/08/14 06:50:50;;;;;;;1.42;0.90;;;21.60;99.90;;;;;;5048785;28;20053;-85
2022/08/14 06:53:18;;;;;;;1.05;0.70;;;21.80;99.90;;;;;;5000850;28;20041;-85
2022/08/14 06:55:46;;;;;;;1.15;0.80;;;21.80;99.90;;;;;;5031948;28;20168;-85
2022/08/14 06:58:15;;;;;;;1.55;1.00;;;21.90;99.90;;;;;;5016317;28;20050;-85
2022/08/14 07:06:15;;;;;;;1.42;0.73;;;22.30;99.90;;;;;;5035202;28;20038;-85
2022/08/14 07:08:42;;;;;;;1.30;0.80;;;22.50;99.90;;;;;;5032038;28;20113;-84
2022/08/14 07:11:10;;;;;;;1.08;0.73;;;22.60;99.90;;;;;;5048233;28;20560;-83
2022/08/14 07:13:37;;;;;;;1.27;0.80;;;22.70;99.90;;;;;;5029665;28;20092;-84
2022/08/14 07:16:04;;;;;;;0.50;0.50;;;22.80;99.90;;;;;;5029390;28;20047;-83
2022/08/14 07:18:33;;;;;;;1.83;1.00;;;23.00;99.90;;;;;;5039075;28;20076;-84
2022/08/14 07:21:04;;;;;;;1.15;0.85;;;23.10;99.90;;;;;;5037994;28;20034;-84
2022/08/14 07:23:31;;;;;;;1.25;0.70;;;23.20;99.90;;;;;;5016360;28;20050;-83
2022/08/14 07:26:00;;;;;;;1.58;0.82;;;23.40;99.90;;;;;;5032053;28;20034;-82
2022/08/14 07:28:33;;;;;;;1.73;1.00;;;23.50;99.90;;;;;;5047777;28;20038;-84
2022/08/14 07:31:02;;;;;;;1.10;0.80;;;23.60;99.90;;;;;;5030264;28;20049;-84
2022/08/14 07:33:32;;;;;;;1.05;0.80;;;23.70;99.90;;;;;;5030388;28;20048;-85
2022/08/14 07:36:02;;;;;;;0.70;0.70;;;23.80;99.90;;;;;;5027593;28;20050;-85
2022/08/14 07:38:29;;;;;;;0.95;0.60;;;23.90;99.90;;;;;;5027888;28;20046;-85
2022/08/14 07:40:58;;;;;;;0.82;0.60;;;24.00;99.90;;;;;;4995719;28;20076;-90
2022/08/14 07:43:25;;;;;;;1.55;0.73;;;24.10;99.90;;;;;;5028500;28;20419;-87
2022/08/14 07:45:52;;;;;;;1.70;0.80;;;24.30;99.90;;;;;;5028296;28;20046;-86
2022/08/14 07:48:18;;;;;;;2.65;0.90;;;24.40;99.90;;;;;;5011832;28;20492;-86
2022/08/14 07:50:46;;;;;;;1.58;0.80;;;24.50;99.90;;;;;;4995617;28;20046;-85
2022/08/14 07:53:13;;;;;;;0.93;0.52;;;24.60;99.90;;;;;;5027733;28;20495;-85
2022/08/14 07:55:41;;;;;;;1.73;0.82;;;24.70;99.90;;;;;;5011130;28;20046;-83
2022/08/14 07:58:09;;;;;;;1.00;0.68;;;24.80;99.90;;;;;;5012323;28;20042;-89
2022/08/14 08:00:37;;;;;;;0.98;0.60;;;24.90;99.90;;;;;;5027272;28;20042;-84
2022/08/14 08:03:10;;;;;;;1.02;0.80;;;25.00;99.90;;;;;;4995771;28;20097;-88
2022/08/14 08:05:39;;;;;;;1.15;0.75;;;25.20;99.90;;;;;;5012014;28;20042;-87
2022/08/14 08:08:07;;;;;;;1.05;0.52;;;25.30;99.90;;;;;;5011503;28;20487;-83
2022/08/14 08:10:37;;;;;;;1.38;0.68;;;25.50;99.90;;;;;;5027374;28;20042;-84
2022/08/14 08:13:08;;;;;;;1.00;0.60;;;25.50;99.90;;;;;;5011714;28;20226;-85
2022/08/14 08:15:40;;;;;;;1.77;1.00;;;25.60;99.90;;;;;;5027178;28;20049;-86
2022/08/14 08:18:08;;;;;;;0.70;0.65;;;25.70;99.90;;;;;;5011653;28;20046;-88
2022/08/14 08:20:39;;;;;;;0.88;0.60;;;25.70;99.90;;;;;;5011036;28;20697;-87
2022/08/14 08:23:08;;;;;;;1.23;0.70;;;25.90;99.90;;;;;;5027709;28;20038;-86
2022/08/14 08:25:38;;;;;;;0.70;0.50;;;25.90;99.90;;;;;;5011109;28;20096;-85
2022/08/14 08:28:11;;;;;;;1.17;0.70;;;26.00;99.90;;;;;;5026986;28;20046;-86
2022/08/14 08:30:40;;;;;;;1.15;0.77;;;26.10;99.90;;;;;;5011011;28;20077;-81
2022/08/14 08:33:09;;;;;;;1.13;0.70;;;26.30;99.90;;;;;;5043010;28;20096;-86
2022/08/14 08:35:37;;;;;;;1.60;0.93;;;26.30;99.90;;;;;;5013763;28;20042;-86
2022/08/14 08:38:07;;;;;;;0.77;0.70;;;26.40;99.90;;;;;;5014107;28;20045;-85
2022/08/14 08:40:37;;;;;;;1.48;0.93;;;26.60;99.90;;;;;;5013697;28;20641;-84
2022/08/14 08:43:05;;;;;;;1.15;0.90;;;26.70;99.90;;;;;;5041992;28;20074;-85
2022/08/14 08:45:35;;;;;;;0.85;0.75;;;26.80;99.90;;;;;;5043293;28;20038;-86
2022/08/14 08:48:03;;;;;;;1.15;0.73;;;26.90;99.90;;;;;;5042880;28;20034;-85
2022/08/14 08:50:33;;;;;;;1.10;0.65;;;27.00;99.90;;;;;;5027151;28;20117;-85
2022/08/14 08:53:04;;;;;;;1.02;0.80;;;27.10;99.90;;;;;;5009870;28;20495;-85
2022/08/14 08:55:37;;;;;;;2.20;0.80;;;27.10;99.90;;;;;;5010633;28;20047;-85
2022/08/14 08:58:06;;;;;;;0.90;0.70;;;27.10;99.90;;;;;;5010669;28;20042;-84
2022/08/14 09:00:37;;;;;;;1.40;0.85;;;27.20;99.90;;;;;;5009630;28;20049;-85
2022/08/14 09:03:10;;;;;;;1.10;0.75;;;27.30;99.90;;;;;;5010075;28;20034;-84
2022/08/14 09:05:55;;;;;;;1.08;0.68;;;27.40;99.90;;;;;;5021220;28;20038;-85
2022/08/14 09:08:29;;;;;;;1.67;1.02;;;27.50;99.90;;;;;;5027671;28;20039;-84
2022/08/14 09:10:58;;;;;;;0.87;0.80;;;27.50;99.90;;;;;;5026246;28;20133;-85
2022/08/14 09:13:25;;;;;;;1.30;0.90;;;27.60;99.90;;;;;;5024169;28;20042;-85
2022/08/14 09:15:53;;;;;;;0.65;0.63;;;27.60;99.90;;;;;;5021709;28;20045;-85
2022/08/14 09:18:21;;;;;;;1.08;0.80;;;27.70;99.90;;;;;;5010244;28;20415;-85
2022/08/14 09:20:50;;;;;;;1.33;0.93;;;27.80;99.90;;;;;;5017061;28;20042;-85
2022/08/14 09:23:18;;;;;;;0.90;0.70;;;27.80;99.90;;;;;;5029571;28;20033;-85
2022/08/14 09:25:47;;;;;;;1.05;0.75;;;27.90;99.90;;;;;;5045322;28;20128;-84
2022/08/14 09:28:16;;;;;;;1.77;0.90;;;28.00;99.90;;;;;;5029950;28;20038;-84
2022/08/14 09:30:53;;;;;;;1.13;0.90;;;28.10;99.90;;;;;;5029443;28;20041;-84
2022/08/14 09:33:47;;;;;;;1.73;1.10;;;28.10;99.90;;;;;;5045547;28;20054;-85
2022/08/14 09:36:33;;;;;;;1.17;0.77;;;28.20;99.90;;;;;;5029206;28;20065;-85
2022/08/14 09:39:05;;;;;;;1.17;0.80;;;28.30;99.90;;;;;;5029072;28;20049;-84
2022/08/14 09:42:03;;;;;;;1.00;0.68;;;28.40;99.90;;;;;;5029265;28;20042;-86
2022/08/14 09:44:54;;;;;;;1.13;0.80;;;28.40;99.90;;;;;;5023485;28;20092;-84
2022/08/14 09:47:38;;;;;;;1.35;0.90;;;28.50;99.90;;;;;;5029499;28;20080;-85
2022/08/14 09:50:18;;;;;;;1.00;0.73;;;28.60;99.90;;;;;;5028559;28;20045;-85
2022/08/14 09:52:52;;;;;;;0.70;0.60;;;28.60;99.90;;;;;;5029417;28;20318;-84
2022/08/14 09:55:21;;;;;;;1.00;0.73;;;28.70;99.90;;;;;;5045760;28;20061;-85
2022/08/14 09:57:49;;;;;;;1.23;0.85;;;28.80;99.90;;;;;;5012678;28;20045;-84
2022/08/14 10:00:17;;;;;;;0.95;0.70;;;28.90;99.90;;;;;;4996749;28;20046;-85
2022/08/14 10:03:01;;;;;;;0.63;0.60;;;29.00;99.90;;;;;;4981124;28;20407;-85
2022/08/14 10:05:33;;;;;;;0.98;0.70;;;29.00;99.90;;;;;;5013147;28;20053;-85
2022/08/14 10:08:02;;;;;;;1.10;0.80;;;29.00;99.90;;;;;;5028944;28;20042;-84
2022/08/14 10:10:37;;;;;;;0.95;0.70;;;29.10;98.70;;;;;;5003172;28;20029;-83
2022/08/14 10:13:06;;;;;;;1.95;0.80;;;29.10;99.90;;;;;;5034503;28;20034;-84
2022/08/14 10:15:44;;;;;;;1.08;0.80;;;29.10;99.90;;;;;;5024291;28;20042;-84
2022/08/14 10:18:13;;;;;;;1.40;0.90;;;29.30;99.90;;;;;;5013183;28;20042;-86
2022/08/14 10:20:43;;;;;;;1.05;0.80;;;29.40;98.90;;;;;;4997216;28;20113;-88
2022/08/14 10:23:12;;;;;;;1.40;0.90;;;29.50;99.00;;;;;;5027601;28;20042;-85
2022/08/14 10:25:49;;;;;;;0.73;0.70;;;29.50;99.40;;;;;;5032737;28;20038;-85
2022/08/14 10:28:18;;;;;;;1.30;0.80;;;29.60;98.80;;;;;;5001884;28;20041;-86
2022/08/14 10:30:47;;;;;;;0.98;0.80;;;29.60;99.40;;;;;;5006466;28;20041;-82
2022/08/14 10:33:28;;;;;;;1.38;0.80;;;29.70;98.90;;;;;;5016390;28;20048;-84
2022/08/14 10:35:56;;;;;;;0.85;0.70;;;29.80;98.10;;;;;;5016081;28;20045;-83
2022/08/14 10:38:28;;;;;;;1.42;0.88;;;29.80;97.40;;;;;;5000338;28;20119;-83
2022/08/14 10:40:55;;;;;;;0.73;0.70;;;29.90;98.40;;;;;;5029672;28;20175;-84
2022/08/14 10:43:24;;;;;;;1.75;1.20;;;30.00;98.30;;;;;;4989587;28;20112;-84
2022/08/14 10:46:10;;;;;;;1.70;0.90;;;30.00;97.20;;;;;;4999573;28;20038;-85
2022/08/14 10:48:37;;;;;;;1.23;0.85;;;30.00;97.70;;;;;;5016252;28;20033;-84
2022/08/14 10:51:04;;;;;;;1.90;0.82;;;30.10;97.60;;;;;;4983845;28;20518;-85
2022/08/14 10:53:33;;;;;;;0.63;0.63;;;30.10;96.90;;;;;;4984416;28;20048;-84
2022/08/14 10:56:05;;;;;;;1.10;0.80;;;30.30;98.00;;;;;;4989505;28;20529;-85
2022/08/14 10:58:32;;;;;;;1.05;0.80;;;30.30;97.00;;;;;;5016920;28;20412;-85
2022/08/14 11:01:03;;;;;;;1.00;0.77;;;30.40;97.10;;;;;;5022703;28;20103;-83
2022/08/14 11:03:39;;;;;;;1.23;0.80;;;30.50;97.40;;;;;;5052609;28;20064;-84
2022/08/14 11:06:18;;;;;;;1.00;0.70;;;30.50;96.80;;;;;;5036922;28;20507;-83
2022/08/14 11:08:47;;;;;;;0.73;0.65;;;30.60;96.60;;;;;;5012708;28;20064;-84
2022/08/14 11:11:16;;;;;;;1.02;0.80;;;30.50;96.80;;;;;;5020420;28;20038;-85
2022/08/14 11:13:44;;;;;;;0.98;0.77;;;30.40;96.60;;;;;;4983659;28;20144;-84
2022/08/14 11:16:14;;;;;;;1.75;0.82;;;30.50;95.90;;;;;;5015873;28;20132;-83
2022/08/14 11:18:45;;;;;;;0.77;0.65;;;30.50;96.40;;;;;;5032604;28;20041;-84
2022/08/14 11:21:18;;;;;;;1.25;0.80;;;30.50;96.00;;;;;;5014841;28;20042;-84
2022/08/14 11:23:48;;;;;;;1.67;1.00;;;30.50;95.30;;;;;;5050945;28;20261;-83
2022/08/14 11:26:21;;;;;;;1.33;0.90;;;30.60;95.90;;;;;;5030170;28;20415;-85
2022/08/14 11:28:48;;;;;;;1.13;0.73;;;30.30;95.60;;;;;;5028591;28;20132;-84
2022/08/14 11:31:22;;;;;;;0.98;0.77;;;30.30;95.60;;;;;;5043677;28;20046;-83
2022/08/14 11:33:55;;;;;;;1.43;0.90;;;30.40;95.60;;;;;;5010793;28;20120;-85
2022/08/14 11:36:27;;;;;;;0.95;0.75;;;30.30;95.70;;;;;;5031923;28;20042;-84
2022/08/14 11:38:54;;;;;;;0.70;0.60;;;30.30;95.70;;;;;;5015571;28;20387;-84
2022/08/14 11:41:20;;;;;;;1.35;0.95;;;30.50;96.00;;;;;;5031231;28;20041;-85
2022/08/14 11:43:49;;;;;;;1.02;0.70;;;30.70;95.50;;;;;;5015054;28;20510;-84
2022/08/14 11:46:16;;;;;;;0.82;0.70;;;30.80;95.40;;;;;;5015445;28;20050;-85
2022/08/14 11:48:52;;;;;;;1.30;0.75;;;30.70;94.70;;;;;;4999309;28;20169;-85
2022/08/14 11:51:27;;;;;;;0.88;0.73;;;30.50;94.90;;;;;;5031288;28;20034;-83
2022/08/14 11:54:05;;;;;;;1.08;0.77;;;30.40;94.80;;;;;;5031413;28;20048;-84
2022/08/14 11:56:36;;;;;;;1.08;0.90;;;30.40;95.00;;;;;;5031120;28;20062;-84
2022/08/14 11:59:06;;;;;;;1.73;0.90;;;30.50;94.70;;;;;;5047111;28;20045;-84
2022/08/14 12:01:33;;;;;;;1.05;0.75;;;30.60;93.80;;;;;;5031194;28;20042;-85
2022/08/14 12:04:16;;;;;;;1.17;0.70;;;30.60;94.60;;;;;;5014668;28;20044;-84
2022/08/14 12:06:44;;;;;;;0.88;0.70;;;30.50;94.60;;;;;;5015312;28;20037;-84
2022/08/14 12:09:10;;;;;;;1.20;0.80;;;30.40;95.30;;;;;;5014714;28;20104;-84
2022/08/14 12:11:39;;;;;;;1.10;0.80;;;30.40;94.20;;;;;;5014578;28;20042;-84
2022/08/14 12:14:07;;;;;;;0.73;0.63;;;30.30;93.80;;;;;;5014679;28;20134;-84
2022/08/14 12:16:37;;;;;;;1.52;0.93;;;30.40;95.00;;;;;;5011698;28;20046;-83
2022/08/14 12:19:04;;;;;;;0.75;0.60;;;30.50;94.70;;;;;;5016302;28;20037;-84
2022/08/14 12:21:31;;;;;;;1.70;1.00;;;30.60;94.80;;;;;;5014958;28;20038;-84
2022/08/14 12:24:10;;;;;;;1.10;0.80;;;30.50;94.60;;;;;;4998039;28;20411;-85
2022/08/14 12:26:37;;;;;;;1.27;0.88;;;30.50;94.20;;;;;;5031272;28;20030;-83
2022/08/14 12:29:13;;;;;;;0.90;0.80;;;30.70;94.70;;;;;;4998226;28;20038;-83
2022/08/14 12:31:41;;;;;;;1.23;0.90;;;30.80;94.30;;;;;;5031107;28;20042;-83
2022/08/14 12:34:10;;;;;;;1.02;0.80;;;30.90;93.40;;;;;;5027146;28;20042;-83
2022/08/14 12:36:37;;;;;;;1.08;0.73;;;30.90;93.80;;;;;;5043116;28;20041;-81
2022/08/14 12:39:18;;;;;;;1.25;0.85;;;31.00;94.10;;;;;;5014297;28;20045;-82
2022/08/14 12:41:54;;;;;;;1.10;0.80;;;30.90;93.80;;;;;;5026371;28;20031;-83
2022/08/14 12:44:29;;;;;;;1.02;0.75;;;30.90;94.00;;;;;;5015983;28;20148;-82
2022/08/14 12:47:15;;;;;;;1.10;0.70;;;31.00;93.50;;;;;;5029649;28;20041;-84
2022/08/14 12:49:53;;;;;;;1.15;0.80;;;31.20;94.00;;;;;;5046302;28;20037;-85
2022/08/14 12:52:39;;;;;;;1.20;0.77;;;31.30;93.80;;;;;;5030168;28;20132;-83
2022/08/14 12:55:09;;;;;;;1.90;0.80;;;31.40;92.60;;;;;;5034963;28;20041;-84
2022/08/14 12:57:46;;;;;;;1.70;1.00;;;31.50;93.20;;;;;;5020375;28;20047;-84
2022/08/14 13:00:19;;;;;;;1.00;0.75;;;31.40;92.70;;;;;;5010551;28;20084;-82
2022/08/14 13:02:50;;;;;;;0.85;0.68;;;31.40;92.70;;;;;;4994560;28;20042;-86
2022/08/14 13:05:24;;;;;;;1.30;0.90;;;31.40;93.00;;;;;;5002119;28;20056;-86
2022/08/14 13:07:51;;;;;;;1.27;0.80;;;31.40;92.40;;;;;;5042342;28;20042;-87
2022/08/14 13:10:20;;;;;;;1.35;0.77;;;31.30;93.30;;;;;;5013757;28;20037;-82
2022/08/14 13:12:54;;;;;;;0.88;0.70;;;31.30;93.20;;;;;;4994686;28;20411;-83
2022/08/14 13:15:21;;;;;;;1.52;0.95;;;31.10;93.20;;;;;;4994995;28;20038;-85
2022/08/14 13:17:51;;;;;;;1.10;0.90;;;31.20;93.30;;;;;;4997993;28;20414;-80